Time;durP1;ratioP1;P1;durP2;ratioP2;P2;SDS_P1;SDS_P2;PMS_P1;PMS_P2;Temp;Humidity;BMP_temperature;BMP_pressure;BME280_temperature;BME280_humidity;BME280_pressure;Samples;Min_cycle;Max_cycle;Signal;HPM_P1;HPM_P2
2021/12/18 00:00:25;;;;;;;27.30;24.95;;;;;;;-141.48;100.00;69781.59;5278128;28;20024;-87
2021/12/18 00:02:55;;;;;;;26.80;24.25;;;;;;;-141.48;100.00;69781.59;5260128;28;20032;-87
2021/12/18 00:05:26;;;;;;;27.63;25.00;;;;;;;-141.48;100.00;69781.59;5260657;28;20031;-86
2021/12/18 00:07:56;;;;;;;27.65;25.27;;;;;;;-141.48;100.00;69781.59;5278053;28;20028;-86
2021/12/18 00:10:29;;;;;;;31.63;28.38;;;;;;;-141.48;100.00;69781.59;5278934;28;20020;-86
2021/12/18 00:13:00;;;;;;;27.42;24.73;;;;;;;-141.48;100.00;69781.59;5259800;28;20049;-86
2021/12/18 00:15:31;;;;;;;30.02;27.25;;;;;;;-141.48;100.00;69781.59;5259947;28;20083;-86
2021/12/18 00:18:01;;;;;;;31.05;27.23;;;;;;;-141.48;100.00;69781.59;5260606;28;20054;-87
2021/12/18 00:20:35;;;;;;;29.58;27.08;;;;;;;-141.48;100.00;69781.59;5260401;28;20027;-86
2021/12/18 00:23:06;;;;;;;30.70;27.58;;;;;;;-141.48;100.00;69781.59;5260090;28;20489;-85
2021/12/18 00:25:36;;;;;;;30.42;27.02;;;;;;;-141.48;100.00;69781.59;5277945;28;20028;-87
2021/12/18 00:28:07;;;;;;;28.20;25.42;;;;;;;-141.48;100.00;69781.59;5259629;28;20027;-87
2021/12/18 00:30:38;;;;;;;27.92;25.05;;;;;;;-141.48;100.00;69781.59;5278259;28;20028;-86
2021/12/18 00:33:10;;;;;;;30.83;27.63;;;;;;;-141.48;100.00;69781.59;5260080;28;20107;-87
2021/12/18 00:35:40;;;;;;;27.48;24.67;;;;;;;-141.48;100.00;69781.59;5259592;28;20028;-87
2021/12/18 00:38:11;;;;;;;32.50;29.20;;;;;;;-141.48;100.00;69781.59;5259865;28;20359;-87
2021/12/18 00:40:46;;;;;;;31.35;28.38;;;;;;;-141.48;100.00;69781.59;5259851;28;20031;-87
2021/12/18 00:43:27;;;;;;;30.63;26.05;;;;;;;-141.48;100.00;69781.59;5278478;28;20055;-86
2021/12/18 00:45:58;;;;;;;28.27;25.83;;;;;;;-141.48;100.00;69781.59;5260492;28;20087;-86
2021/12/18 00:48:28;;;;;;;29.85;26.90;;;;;;;-141.48;100.00;69781.59;5265324;28;20051;-84
2021/12/18 00:50:59;;;;;;;32.78;29.67;;;;;;;-141.48;100.00;69781.59;5285326;28;20051;-85
2021/12/18 00:53:29;;;;;;;30.42;27.48;;;;;;;-141.48;100.00;69781.59;5286101;28;20027;-86
2021/12/18 00:56:00;;;;;;;32.47;29.58;;;;;;;-141.48;100.00;69781.59;5284214;28;20054;-86
2021/12/18 00:58:31;;;;;;;33.08;29.80;;;;;;;-141.48;100.00;69781.59;5263869;28;20050;-84
2021/12/18 01:01:06;;;;;;;29.23;26.08;;;;;;;-141.48;100.00;69781.59;5264279;28;20024;-86
2021/12/18 01:03:39;;;;;;;30.75;27.38;;;;;;;-141.48;100.00;69781.59;5263314;28;20020;-86
2021/12/18 01:06:10;;;;;;;31.02;28.00;;;;;;;-141.48;100.00;69781.59;5263547;28;20034;-86
2021/12/18 01:08:40;;;;;;;30.70;27.40;;;;;;;-141.48;100.00;69781.59;5282092;28;20024;-86
2021/12/18 01:14:05;;;;;;;30.40;27.27;;;;;;;-141.48;100.00;69781.59;5281261;28;20036;-87
2021/12/18 01:24:35;;;;;;;31.05;28.02;;;;;;;-141.48;100.00;69781.59;5280638;28;20032;-85
2021/12/18 01:27:05;;;;;;;29.65;27.08;;;;;;;-141.48;100.00;69781.59;5282396;28;20032;-86
2021/12/18 01:29:36;;;;;;;32.97;29.67;;;;;;;-141.48;100.00;69781.59;5281187;28;20054;-86
2021/12/18 01:32:07;;;;;;;31.08;27.83;;;;;;;-141.48;100.00;69781.59;5281527;28;20024;-86
2021/12/18 01:34:38;;;;;;;31.25;28.30;;;;;;;-141.48;100.00;69781.59;5264811;28;20114;-87
2021/12/18 01:37:08;;;;;;;32.15;28.85;;;;;;;-141.48;100.00;69781.59;5285519;28;20036;-87
2021/12/18 01:39:39;;;;;;;30.15;27.25;;;;;;;-141.48;100.00;69781.59;5268599;28;20032;-83
2021/12/18 01:45:44;;;;;;;33.80;30.63;;;;;;;-141.48;100.00;69781.59;5250347;28;20066;-87
2021/12/18 01:53:52;;;;;;;25.42;22.95;;;;;;;-141.48;100.00;69781.59;5276137;28;20097;-87
2021/12/18 01:56:26;;;;;;;26.83;24.02;;;;;;;-141.48;100.00;69781.59;5280622;28;20032;-87
2021/12/18 01:58:57;;;;;;;29.98;27.27;;;;;;;-141.48;100.00;69781.59;5261204;28;20035;-84
2021/12/18 02:01:28;;;;;;;24.80;22.42;;;;;;;-141.48;100.00;69781.59;5262544;28;20386;-86
2021/12/18 02:03:59;;;;;;;27.98;25.02;;;;;;;-141.48;100.00;69781.59;5262174;28;20524;-86
2021/12/18 02:06:29;;;;;;;23.65;21.20;;;;;;;-141.48;100.00;69781.59;5262413;28;20055;-86
2021/12/18 02:08:59;;;;;;;26.67;24.00;;;;;;;-141.48;100.00;69781.59;5280400;28;20027;-86
2021/12/18 02:11:34;;;;;;;22.88;20.70;;;;;;;-141.48;100.00;69781.59;5280166;28;20077;-86
2021/12/18 02:14:22;;;;;;;24.60;22.27;;;;;;;-141.48;100.00;69781.59;5280488;28;20080;-86
2021/12/18 02:20:10;;;;;;;22.63;20.30;;;;;;;-141.48;100.00;69781.59;5280261;28;20040;-83
2021/12/18 02:22:40;;;;;;;26.50;23.98;;;;;;;-141.48;100.00;69781.59;5279674;28;20099;-85
2021/12/18 02:25:10;;;;;;;20.83;18.80;;;;;;;-141.48;100.00;69781.59;5279544;28;20058;-86
2021/12/18 02:27:41;;;;;;;22.00;18.58;;;;;;;-141.48;100.00;69781.59;5280455;28;20093;-88
2021/12/18 02:30:11;;;;;;;20.83;18.73;;;;;;;-141.48;100.00;69781.59;5262116;28;20063;-86
2021/12/18 02:32:42;;;;;;;23.00;20.55;;;;;;;-141.48;100.00;69781.59;5279610;28;20024;-84
2021/12/18 02:35:39;;;;;;;19.25;17.52;;;;;;;-141.48;100.00;69781.59;5279737;28;20043;-85
2021/12/18 02:44:11;;;;;;;21.40;19.27;;;;;;;-141.48;100.00;69781.59;5279348;28;20034;-87
2021/12/18 02:46:41;;;;;;;20.98;18.88;;;;;;;-141.48;100.00;69781.59;5279190;28;20055;-85
2021/12/18 02:49:14;;;;;;;23.70;21.27;;;;;;;-141.48;100.00;69781.59;5279521;28;20432;-86
2021/12/18 02:51:46;;;;;;;24.65;20.70;;;;;;;-141.48;100.00;69781.59;5279733;28;20028;-84
2021/12/18 02:54:16;;;;;;;22.77;20.67;;;;;;;-141.48;100.00;69781.59;5260892;28;20024;-87
2021/12/18 02:56:47;;;;;;;23.60;21.30;;;;;;;-141.48;100.00;69781.59;5278951;28;20032;-86
2021/12/18 02:59:17;;;;;;;23.80;21.42;;;;;;;-141.48;100.00;69781.59;5260500;28;20134;-85
2021/12/18 03:01:48;;;;;;;23.35;21.13;;;;;;;-141.48;100.00;69781.59;5278474;28;20023;-85
2021/12/18 03:04:27;;;;;;;28.45;21.98;;;;;;;-141.48;100.00;69781.59;5279106;28;20397;-85
2021/12/18 03:07:01;;;;;;;25.10;22.83;;;;;;;-141.48;100.00;69781.59;5278858;28;20031;-86
2021/12/18 03:23:46;;;;;;;26.10;22.35;;;;;;;-141.48;100.00;69781.59;5278675;28;20031;-86
2021/12/18 03:26:17;;;;;;;27.13;24.00;;;;;;;-141.48;100.00;69781.59;5260609;28;20058;-85
2021/12/18 03:28:48;;;;;;;29.50;24.73;;;;;;;-141.48;100.00;69781.59;5278573;28;20024;-85
2021/12/18 03:31:18;;;;;;;23.20;20.63;;;;;;;-141.48;100.00;69781.59;5278748;28;20460;-86
2021/12/18 03:33:48;;;;;;;24.75;21.63;;;;;;;-141.48;100.00;69781.59;5278419;28;20028;-86
2021/12/18 03:36:19;;;;;;;23.40;21.00;;;;;;;-141.48;100.00;69781.59;5278686;28;20039;-86
2021/12/18 03:38:49;;;;;;;26.38;23.17;;;;;;;-141.48;100.00;69781.59;5278380;28;20046;-86
2021/12/18 03:41:20;;;;;;;22.58;20.40;;;;;;;-141.48;100.00;69781.59;5278861;28;20020;-83
2021/12/18 03:43:50;;;;;;;22.73;20.30;;;;;;;-141.48;100.00;69781.59;5259829;28;20428;-86
2021/12/18 03:46:20;;;;;;;30.52;25.40;;;;;;;-141.48;100.00;69781.59;5278963;28;20028;-86
2021/12/18 03:48:51;;;;;;;27.20;24.25;;;;;;;-141.48;100.00;69781.59;5278736;28;20035;-87
2021/12/18 03:51:21;;;;;;;26.13;22.77;;;;;;;-141.48;100.00;69781.59;5278575;28;20036;-87
2021/12/18 03:53:52;;;;;;;29.52;22.98;;;;;;;-141.48;100.00;69781.59;5278342;28;20053;-86
2021/12/18 03:56:23;;;;;;;23.90;21.42;;;;;;;-141.48;100.00;69781.59;5278308;28;20374;-84
2021/12/18 03:58:53;;;;;;;28.50;25.67;;;;;;;-141.48;100.00;69781.59;5278814;28;20529;-86
2021/12/18 04:01:24;;;;;;;26.05;22.27;;;;;;;-141.48;100.00;69781.59;5278678;28;20028;-85
2021/12/18 04:03:54;;;;;;;25.58;22.77;;;;;;;-141.48;100.00;69781.59;5278769;28;20107;-86
2021/12/18 04:06:25;;;;;;;25.92;23.17;;;;;;;-141.48;100.00;69781.59;5278629;28;20391;-87
2021/12/18 04:08:55;;;;;;;26.75;22.48;;;;;;;-141.48;100.00;69781.59;5278557;28;20031;-86
2021/12/18 04:11:26;;;;;;;26.10;21.90;;;;;;;-141.48;100.00;69781.59;5260148;28;20027;-86
2021/12/18 04:13:56;;;;;;;27.40;23.33;;;;;;;-141.48;100.00;69781.59;5259554;28;20024;-86
2021/12/18 04:16:28;;;;;;;21.98;19.50;;;;;;;-141.48;100.00;69781.59;5278106;28;20038;-86
2021/12/18 04:18:59;;;;;;;20.73;18.70;;;;;;;-141.48;100.00;69781.59;5278022;28;20028;-86
2021/12/18 04:21:32;;;;;;;21.35;19.33;;;;;;;-141.48;100.00;69781.59;5277159;28;20016;-86
2021/12/18 04:24:03;;;;;;;24.20;22.08;;;;;;;-141.48;100.00;69781.59;5259637;28;20031;-82
2021/12/18 04:26:35;;;;;;;21.17;19.17;;;;;;;-141.48;100.00;69781.59;5259865;28;20020;-86
2021/12/18 04:29:08;;;;;;;24.70;21.88;;;;;;;-141.48;100.00;69781.59;5259978;28;20043;-87
2021/12/18 04:31:39;;;;;;;22.50;19.90;;;;;;;-141.48;100.00;69781.59;5259839;28;20059;-85
2021/12/18 04:34:10;;;;;;;24.77;20.42;;;;;;;-141.48;100.00;69781.59;5259782;28;20020;-85
2021/12/18 04:36:40;;;;;;;25.15;20.80;;;;;;;-141.48;100.00;69781.59;5277548;28;20024;-86
2021/12/18 04:39:10;;;;;;;26.33;22.35;;;;;;;-141.48;100.00;69781.59;5278068;28;20027;-86
2021/12/18 04:41:50;;;;;;;22.92;20.70;;;;;;;-141.48;100.00;69781.59;5260038;28;20047;-83
2021/12/18 04:44:20;;;;;;;23.93;17.90;;;;;;;-141.48;100.00;69781.59;5277648;28;20044;-86
2021/12/18 04:46:53;;;;;;;24.35;21.60;;;;;;;-141.48;100.00;69781.59;5277867;28;20027;-86
2021/12/18 04:49:23;;;;;;;24.73;22.17;;;;;;;-141.48;100.00;69781.59;5277946;28;20323;-86
2021/12/18 04:51:54;;;;;;;21.00;17.52;;;;;;;-141.48;100.00;69781.59;5277638;28;20157;-84
2021/12/18 04:54:24;;;;;;;21.08;18.73;;;;;;;-141.48;100.00;69781.59;5259262;28;20158;-86
2021/12/18 04:56:55;;;;;;;22.77;20.38;;;;;;;-141.48;100.00;69781.59;5276866;28;20031;-86
2021/12/18 04:59:25;;;;;;;20.60;18.40;;;;;;;-141.48;100.00;69781.59;5277659;28;20016;-86
2021/12/18 05:01:56;;;;;;;20.70;17.83;;;;;;;-141.48;100.00;69781.59;5259222;28;20044;-83
2021/12/18 05:04:26;;;;;;;20.95;18.80;;;;;;;-141.48;100.00;69781.59;5277413;28;20024;-86
2021/12/18 05:06:57;;;;;;;21.73;17.30;;;;;;;-141.48;100.00;69781.59;5282065;28;20028;-86
2021/12/18 05:09:27;;;;;;;23.30;21.08;;;;;;;-141.48;100.00;69781.59;5284057;28;20097;-86
2021/12/18 05:11:57;;;;;;;24.23;19.35;;;;;;;-141.48;100.00;69781.59;5315030;22;20016;-87
2021/12/18 05:14:28;;;;;;;21.88;18.05;;;;;;;-141.48;100.00;69781.59;5262295;28;20603;-86
2021/12/18 05:16:58;;;;;;;22.67;20.35;;;;;;;-141.48;100.00;69781.59;5281182;28;20043;-88
2021/12/18 05:19:29;;;;;;;22.65;18.67;;;;;;;-141.48;100.00;69781.59;5281301;28;20448;-88
2021/12/18 05:21:59;;;;;;;22.23;19.75;;;;;;;-141.48;100.00;69781.59;5282352;28;20020;-88
2021/12/18 05:24:30;;;;;;;25.65;21.52;;;;;;;-141.48;100.00;69781.59;5265474;28;20493;-85
2021/12/18 05:27:01;;;;;;;27.73;20.60;;;;;;;-141.48;100.00;69781.59;5286561;28;20035;-86
2021/12/18 05:29:32;;;;;;;21.30;16.75;;;;;;;-141.48;100.00;69781.59;5286463;28;20020;-86
2021/12/18 05:32:02;;;;;;;20.95;18.80;;;;;;;-141.48;100.00;69781.59;5287717;28;20024;-86
2021/12/18 05:34:37;;;;;;;19.25;17.23;;;;;;;-141.48;100.00;69781.59;5290674;28;20039;-86
2021/12/18 05:39:47;;;;;;;22.80;17.83;;;;;;;-141.48;100.00;69781.59;5290925;28;20032;-86
2021/12/18 05:42:18;;;;;;;21.55;18.90;;;;;;;-141.48;100.00;69781.59;5288925;28;20030;-86
2021/12/18 05:44:49;;;;;;;25.27;19.77;;;;;;;-141.48;100.00;69781.59;5288064;28;20493;-85
2021/12/18 05:47:19;;;;;;;20.75;18.67;;;;;;;-141.48;100.00;69781.59;5283451;28;20397;-85
2021/12/18 05:49:50;;;;;;;19.55;17.60;;;;;;;-141.48;100.00;69781.59;5283598;28;20032;-85
2021/12/18 05:52:20;;;;;;;21.60;19.15;;;;;;;-141.48;100.00;69781.59;5264940;28;20055;-85
2021/12/18 05:54:50;;;;;;;23.40;16.73;;;;;;;-141.48;100.00;69781.59;5263477;28;20034;-85
2021/12/18 05:57:21;;;;;;;21.75;18.20;;;;;;;-141.48;100.00;69781.59;5283248;28;20028;-84
2021/12/18 05:59:51;;;;;;;24.40;20.10;;;;;;;-141.48;100.00;69781.59;5265324;28;20016;-84
2021/12/18 06:02:22;;;;;;;22.55;19.02;;;;;;;-141.48;100.00;69781.59;5284618;28;20016;-84
2021/12/18 06:04:52;;;;;;;24.77;20.70;;;;;;;-141.48;100.00;69781.59;5283961;28;20028;-85
2021/12/18 06:07:39;;;;;;;22.77;18.27;;;;;;;-141.48;100.00;69781.59;5283234;28;20023;-85
2021/12/18 06:10:09;;;;;;;26.77;15.13;;;;;;;-141.48;100.00;69781.59;5282799;28;20303;-85
2021/12/18 06:12:40;;;;;;;21.88;18.73;;;;;;;-141.48;100.00;69781.59;5281576;28;20047;-84
2021/12/18 06:15:10;;;;;;;18.23;16.27;;;;;;;-141.48;100.00;69781.59;5263406;28;20027;-84
2021/12/18 06:17:41;;;;;;;24.83;21.27;;;;;;;-141.48;100.00;69781.59;5282025;28;20024;-85
2021/12/18 06:20:12;;;;;;;20.58;18.23;;;;;;;-141.48;100.00;69781.59;5282214;28;20024;-85
2021/12/18 06:22:42;;;;;;;23.20;19.10;;;;;;;-141.48;100.00;69781.59;5283904;28;20068;-87
2021/12/18 06:25:12;;;;;;;23.55;21.13;;;;;;;-141.48;100.00;69781.59;5282229;28;20032;-86
2021/12/18 06:27:43;;;;;;;29.52;19.23;;;;;;;-141.48;100.00;69781.59;5282897;28;20098;-85
2021/12/18 06:30:16;;;;;;;23.48;21.33;;;;;;;-141.48;100.00;69781.59;5255168;28;20020;-85
2021/12/18 06:32:46;;;;;;;24.70;21.05;;;;;;;-141.48;100.00;69781.59;5260424;28;20028;-86
2021/12/18 06:35:17;;;;;;;22.65;20.30;;;;;;;-141.48;100.00;69781.59;5255968;28;20032;-86
2021/12/18 06:37:47;;;;;;;31.60;21.25;;;;;;;-141.48;100.00;69781.59;5255599;28;20021;-86
2021/12/18 06:40:17;;;;;;;23.98;19.90;;;;;;;-141.48;100.00;69781.59;5255292;28;20027;-84
2021/12/18 06:42:48;;;;;;;31.48;21.40;;;;;;;-141.48;100.00;69781.59;5255856;28;20027;-85
2021/12/18 06:45:18;;;;;;;26.48;19.75;;;;;;;-141.48;100.00;69781.59;5254123;28;20490;-86
2021/12/18 06:47:49;;;;;;;28.00;21.10;;;;;;;-141.48;100.00;69781.59;5255316;28;20025;-85
2021/12/18 06:50:20;;;;;;;26.05;20.33;;;;;;;-141.48;100.00;69781.59;5259526;28;20048;-86
2021/12/18 06:52:50;;;;;;;26.65;22.55;;;;;;;-141.48;100.00;69781.59;5259031;28;20071;-86
2021/12/18 06:55:21;;;;;;;24.85;20.50;;;;;;;-141.48;100.00;69781.59;5261053;28;20023;-86
2021/12/18 06:57:52;;;;;;;40.92;22.45;;;;;;;-141.48;100.00;69781.59;5258665;28;20060;-86
2021/12/18 07:00:23;;;;;;;27.92;21.20;;;;;;;-141.48;100.00;69781.59;5239752;28;20501;-87
2021/12/18 07:02:54;;;;;;;23.13;19.88;;;;;;;-141.48;100.00;69781.59;5257545;28;20032;-86
2021/12/18 07:05:25;;;;;;;26.77;22.23;;;;;;;-141.48;100.00;69781.59;5237707;28;20036;-86
2021/12/18 07:07:56;;;;;;;25.08;21.20;;;;;;;-141.48;100.00;69781.59;5273714;28;20024;-86
2021/12/18 07:10:27;;;;;;;26.13;23.30;;;;;;;-141.48;100.00;69781.59;5261104;28;20019;-86
2021/12/18 07:12:58;;;;;;;25.48;19.42;;;;;;;-141.48;100.00;69781.59;5273757;28;20077;-86
2021/12/18 07:15:28;;;;;;;24.00;21.58;;;;;;;-141.48;100.00;69781.59;5256607;28;20028;-86
2021/12/18 07:17:59;;;;;;;23.52;18.90;;;;;;;-141.48;100.00;69781.59;5258938;28;20062;-88
2021/12/18 07:20:31;;;;;;;21.08;18.88;;;;;;;-141.48;100.00;69781.59;5281419;28;20036;-86
2021/12/18 07:23:02;;;;;;;30.15;22.58;;;;;;;-141.48;100.00;69781.59;5259956;28;20015;-86
2021/12/18 07:25:32;;;;;;;25.27;20.35;;;;;;;-141.48;100.00;69781.59;5260129;28;20026;-86
2021/12/18 07:28:03;;;;;;;21.95;17.75;;;;;;;-141.48;100.00;69781.59;5257218;28;20024;-85
2021/12/18 07:30:34;;;;;;;25.25;17.35;;;;;;;-141.48;100.00;69781.59;5274358;28;20031;-85
2021/12/18 07:33:10;;;;;;;20.50;18.42;;;;;;;-141.48;100.00;69781.59;5256279;28;20020;-85
2021/12/18 07:35:41;;;;;;;21.58;17.75;;;;;;;-141.48;100.00;69781.59;5273317;28;20028;-85
2021/12/18 07:38:12;;;;;;;18.48;15.57;;;;;;;-141.48;100.00;69781.59;5275024;28;20028;-85
2021/12/18 07:40:43;;;;;;;18.25;15.13;;;;;;;-141.48;100.00;69781.59;5257141;28;20474;-86
2021/12/18 07:43:13;;;;;;;19.48;15.00;;;;;;;-141.48;100.00;69781.59;5277398;28;20027;-85
2021/12/18 07:45:44;;;;;;;17.13;14.80;;;;;;;-141.48;100.00;69781.59;5256877;28;20067;-86
2021/12/18 07:48:14;;;;;;;15.65;14.05;;;;;;;-141.48;100.00;69781.59;5257107;28;20044;-86
2021/12/18 07:50:45;;;;;;;20.75;15.15;;;;;;;-141.48;100.00;69781.59;5257384;28;20020;-85
2021/12/18 07:53:17;;;;;;;17.58;15.52;;;;;;;-141.48;100.00;69781.59;5257672;28;20023;-85
2021/12/18 07:55:47;;;;;;;16.10;13.98;;;;;;;-141.48;100.00;69781.59;5256515;28;20023;-85
2021/12/18 07:58:18;;;;;;;15.65;14.07;;;;;;;-141.48;100.00;69781.59;5260432;28;20023;-85
2021/12/18 08:00:48;;;;;;;13.60;12.40;;;;;;;-141.48;100.00;69781.59;5286644;28;20020;-85
2021/12/18 08:03:19;;;;;;;14.38;12.98;;;;;;;-141.48;100.00;69781.59;5287210;28;20020;-85
2021/12/18 08:05:49;;;;;;;19.02;14.07;;;;;;;-141.48;100.00;69781.59;5266006;28;20028;-85
2021/12/18 08:08:20;;;;;;;12.95;10.88;;;;;;;-141.48;100.00;69781.59;5284723;28;20032;-85
2021/12/18 08:10:50;;;;;;;17.63;14.20;;;;;;;-141.48;100.00;69781.59;5283551;28;20079;-86
2021/12/18 08:13:21;;;;;;;17.80;15.27;;;;;;;-141.48;100.00;69781.59;5263697;28;20022;-85
2021/12/18 08:15:51;;;;;;;16.08;14.35;;;;;;;-141.48;100.00;69781.59;5259600;28;20058;-87
2021/12/18 08:18:22;;;;;;;13.07;11.77;;;;;;;-141.48;100.00;69781.59;5260854;28;20473;-88
2021/12/18 08:20:52;;;;;;;17.42;13.95;;;;;;;-141.48;100.00;69781.59;5277470;28;20036;-84
2021/12/18 08:23:23;;;;;;;17.60;14.18;;;;;;;-141.48;100.00;69781.59;5279731;28;20016;-86
2021/12/18 08:25:54;;;;;;;21.55;14.40;;;;;;;-141.48;100.00;69781.59;5259001;28;20027;-88
2021/12/18 08:28:24;;;;;;;18.13;15.93;;;;;;;-141.48;100.00;69781.59;5278088;28;20031;-87
2021/12/18 08:30:55;;;;;;;17.25;15.43;;;;;;;-141.48;100.00;69781.59;5262725;28;20028;-85
2021/12/18 08:33:25;;;;;;;15.35;13.32;;;;;;;-141.48;100.00;69781.59;5278742;28;20040;-85
2021/12/18 08:35:56;;;;;;;15.73;14.35;;;;;;;-141.48;100.00;69781.59;5279818;28;20028;-85
2021/12/18 08:38:26;;;;;;;15.77;13.90;;;;;;;-141.48;100.00;69781.59;5260136;28;20080;-85
2021/12/18 08:40:57;;;;;;;11.93;10.23;;;;;;;-141.48;100.00;69781.59;5277555;28;20020;-85
2021/12/18 08:43:27;;;;;;;16.63;11.82;;;;;;;-141.48;100.00;69781.59;5276850;28;20386;-86
2021/12/18 08:45:58;;;;;;;14.82;12.30;;;;;;;-141.48;100.00;69781.59;5273212;28;20043;-86
2021/12/18 08:48:28;;;;;;;17.35;15.13;;;;;;;-141.48;100.00;69781.59;5273072;28;20038;-87
2021/12/18 08:50:58;;;;;;;22.02;17.83;;;;;;;-141.48;100.00;69781.59;5255542;28;20078;-88
2021/12/18 08:53:29;;;;;;;20.13;16.77;;;;;;;-141.48;100.00;69781.59;5272834;28;20479;-86
2021/12/18 08:55:59;;;;;;;16.95;15.23;;;;;;;-141.48;100.00;69781.59;5270500;28;20032;-85
2021/12/18 08:58:30;;;;;;;23.23;16.05;;;;;;;-141.48;100.00;69781.59;5277907;28;20142;-86
2021/12/18 09:01:00;;;;;;;17.48;15.52;;;;;;;-141.48;100.00;69781.59;5274545;28;20106;-85
2021/12/18 09:03:31;;;;;;;19.60;17.58;;;;;;;-141.48;100.00;69781.59;5277988;28;20385;-85
2021/12/18 09:06:02;;;;;;;15.98;14.35;;;;;;;-141.48;100.00;69781.59;5274190;28;20030;-85
2021/12/18 09:08:33;;;;;;;14.57;12.80;;;;;;;-141.48;100.00;69781.59;5276431;28;20401;-87
2021/12/18 09:11:03;;;;;;;20.42;16.25;;;;;;;-141.48;100.00;69781.59;5256541;28;20016;-85
2021/12/18 09:13:34;;;;;;;21.38;16.40;;;;;;;-141.48;100.00;69781.59;5273402;28;20020;-84
2021/12/18 09:16:05;;;;;;;16.15;14.18;;;;;;;-141.48;100.00;69781.59;5257173;28;20409;-88
2021/12/18 09:18:36;;;;;;;17.85;13.73;;;;;;;-141.48;100.00;69781.59;5264646;28;20038;-85
2021/12/18 09:21:06;;;;;;;13.80;12.23;;;;;;;-141.48;100.00;69781.59;5279245;28;20051;-86
2021/12/18 09:23:36;;;;;;;17.70;15.80;;;;;;;-141.48;100.00;69781.59;5275256;28;20017;-86
2021/12/18 09:26:07;;;;;;;18.90;13.70;;;;;;;-141.48;100.00;69781.59;5274811;28;20035;-86
2021/12/18 09:28:37;;;;;;;15.85;14.27;;;;;;;-141.48;100.00;69781.59;5258408;28;20374;-87
2021/12/18 09:31:08;;;;;;;14.20;12.75;;;;;;;-141.48;100.00;69781.59;5259117;28;20123;-87
2021/12/18 09:33:38;;;;;;;14.43;13.25;;;;;;;-141.48;100.00;69781.59;5256407;28;20625;-85
2021/12/18 09:36:09;;;;;;;18.77;15.70;;;;;;;-141.48;100.00;69781.59;5256806;28;20113;-86
2021/12/18 09:38:39;;;;;;;17.33;15.63;;;;;;;-141.48;100.00;69781.59;5277066;28;20096;-87
2021/12/18 09:41:10;;;;;;;16.45;14.50;;;;;;;-141.48;100.00;69781.59;5259006;28;20036;-87
2021/12/18 09:43:41;;;;;;;14.75;13.27;;;;;;;-141.48;100.00;69781.59;5263170;28;20024;-87
2021/12/18 09:46:13;;;;;;;14.85;12.95;;;;;;;-141.48;100.00;69781.59;5264320;28;20112;-86
2021/12/18 09:48:45;;;;;;;12.85;11.52;;;;;;;-141.48;100.00;69781.59;5264128;28;20516;-88
2021/12/18 09:51:27;;;;;;;13.82;12.43;;;;;;;-141.48;100.00;69781.59;5264207;28;20020;-87
2021/12/18 09:53:57;;;;;;;14.00;11.10;;;;;;;-141.48;100.00;69781.59;5265816;28;20031;-86
2021/12/18 09:56:28;;;;;;;10.32;8.63;;;;;;;-141.48;100.00;69781.59;5267318;28;20016;-86
2021/12/18 09:58:58;;;;;;;13.38;11.05;;;;;;;-141.48;100.00;69781.59;5286252;28;20061;-85
2021/12/18 10:01:29;;;;;;;10.95;9.90;;;;;;;-141.48;100.00;69781.59;5287314;28;20432;-85
2021/12/18 10:04:02;;;;;;;11.90;9.75;;;;;;;-141.48;100.00;69781.59;5286667;28;20024;-85
2021/12/18 10:06:41;;;;;;;11.27;10.18;;;;;;;-141.48;100.00;69781.59;5266179;28;20024;-86
2021/12/18 10:09:29;;;;;;;13.60;10.55;;;;;;;-141.48;100.00;69781.59;5264593;28;20058;-88
2021/12/18 10:12:20;;;;;;;11.70;10.27;;;;;;;-141.48;100.00;69781.59;5265792;28;20024;-87
2021/12/18 10:14:54;;;;;;;13.18;10.20;;;;;;;-141.48;100.00;69781.59;5294937;28;20102;-90
2021/12/18 10:17:31;;;;;;;11.38;10.15;;;;;;;-141.48;100.00;69781.59;5271296;28;20028;-87
2021/12/18 10:20:10;;;;;;;11.05;10.10;;;;;;;-141.48;100.00;69781.59;5277204;28;20024;-88
2021/12/18 10:22:52;;;;;;;12.10;10.77;;;;;;;-141.48;100.00;69781.59;5280838;28;20036;-87
2021/12/18 10:25:31;;;;;;;10.70;9.73;;;;;;;-141.48;100.00;69781.59;5257525;28;20024;-88
2021/12/18 10:28:15;;;;;;;13.20;11.88;;;;;;;-141.48;100.00;69781.59;5255578;28;20095;-87
2021/12/18 10:30:50;;;;;;;12.30;10.93;;;;;;;-141.48;100.00;69781.59;5258182;28;20083;-88
2021/12/18 10:33:28;;;;;;;14.93;12.25;;;;;;;-141.48;100.00;69781.59;5258080;28;20027;-88
2021/12/18 10:36:00;;;;;;;13.23;11.90;;;;;;;-141.48;100.00;69781.59;5258301;28;20213;-87
2021/12/18 10:38:49;;;;;;;11.07;10.15;;;;;;;-141.48;100.00;69781.59;5275353;28;20046;-88
2021/12/18 10:41:22;;;;;;;14.70;9.50;;;;;;;-141.48;100.00;69781.59;5275995;28;20024;-88
2021/12/18 10:44:07;;;;;;;8.80;8.00;;;;;;;-141.48;100.00;69781.59;5266234;28;20020;-88
2021/12/18 10:46:44;;;;;;;10.65;9.75;;;;;;;-141.48;100.00;69781.59;5266041;28;20032;-89
2021/12/18 10:49:18;;;;;;;12.13;9.27;;;;;;;-141.48;100.00;69781.59;5286888;28;20458;-88
2021/12/18 10:51:50;;;;;;;10.32;9.35;;;;;;;-141.48;100.00;69781.59;5282936;28;20024;-87
2021/12/18 10:54:22;;;;;;;12.30;10.68;;;;;;;-141.48;100.00;69781.59;5283535;28;20065;-88
2021/12/18 10:56:55;;;;;;;9.98;9.05;;;;;;;-141.48;100.00;69781.59;5264309;28;20115;-87
2021/12/18 10:59:31;;;;;;;11.90;10.88;;;;;;;-141.48;100.00;69781.59;5284267;28;20026;-88
2021/12/18 11:02:11;;;;;;;19.50;11.35;;;;;;;-141.48;100.00;69781.59;5266206;28;20512;-87
2021/12/18 11:04:44;;;;;;;13.57;11.63;;;;;;;-141.48;100.00;69781.59;5283815;28;20024;-88
2021/12/18 11:07:19;;;;;;;16.40;10.38;;;;;;;-141.48;100.00;69781.59;5265737;28;20035;-87
2021/12/18 11:10:11;;;;;;;13.00;11.43;;;;;;;-141.48;100.00;69781.59;5283677;28;20028;-86
2021/12/18 11:15:30;;;;;;;15.88;10.90;;;;;;;-141.48;100.00;69781.59;5268543;28;20506;-64
2021/12/18 11:18:01;;;;;;;13.45;11.93;;;;;;;-141.48;100.00;69781.59;5250549;28;20396;-64
2021/12/18 11:20:31;;;;;;;12.85;10.52;;;;;;;-141.48;100.00;69781.59;5250729;28;20483;-65
2021/12/18 11:23:02;;;;;;;11.95;10.85;;;;;;;-141.48;100.00;69781.59;5250096;28;20021;-64
2021/12/18 11:25:33;;;;;;;12.15;10.90;;;;;;;-141.48;100.00;69781.59;5250019;28;20026;-64
2021/12/18 11:28:04;;;;;;;12.10;11.10;;;;;;;-141.48;100.00;69781.59;5250120;28;20028;-65
2021/12/18 11:30:34;;;;;;;12.95;11.50;;;;;;;-141.48;100.00;69781.59;5249809;28;20023;-63
2021/12/18 11:33:05;;;;;;;11.63;10.27;;;;;;;-141.48;100.00;69781.59;5267960;28;20104;-64
2021/12/18 11:35:36;;;;;;;12.75;11.40;;;;;;;-141.48;100.00;69781.59;5249824;28;20473;-64
2021/12/18 11:38:08;;;;;;;15.10;13.32;;;;;;;-141.48;100.00;69781.59;5249894;28;20553;-64
2021/12/18 11:40:40;;;;;;;16.17;13.60;;;;;;;-141.48;100.00;69781.59;5249887;28;20024;-64
2021/12/18 11:43:37;;;;;;;13.02;11.75;;;;;;;-141.48;100.00;69781.59;5249698;28;20483;-64
2021/12/18 11:46:31;;;;;;;14.73;13.30;;;;;;;-141.48;100.00;69781.59;5249889;28;20035;-65
2021/12/18 11:49:10;;;;;;;15.95;12.90;;;;;;;-141.48;100.00;69781.59;5249713;28;20024;-63
2021/12/18 11:51:56;;;;;;;14.32;12.85;;;;;;;-141.48;100.00;69781.59;5267957;28;20472;-64
2021/12/18 11:54:45;;;;;;;18.77;14.15;;;;;;;-141.48;100.00;69781.59;5249207;28;20061;-64
2021/12/18 11:57:58;;;;;;;15.63;12.40;;;;;;;-141.48;100.00;69781.59;5249667;28;20024;-64
2021/12/18 12:00:44;;;;;;;14.32;12.80;;;;;;;-141.48;100.00;69781.59;5166540;28;20034;-63
2021/12/18 12:03:53;;;;;;;11.38;10.48;;;;;;;-141.48;100.00;69781.59;5166420;28;20172;-64
2021/12/18 12:06:36;;;;;;;13.93;12.65;;;;;;;-141.48;100.00;69781.59;5230225;28;20044;-64